Time;durP1;ratioP1;P1;durP2;ratioP2;P2;SDS_P1;SDS_P2;PMS_P1;PMS_P2;Temp;Humidity;BMP_temperature;BMP_pressure;BME280_temperature;BME280_humidity;BME280_pressure;Samples;Min_cycle;Max_cycle;Signal;HPM_P1;HPM_P2
2023/11/15 00:01:53;;;;;;;2.83;2.10;;;12.70;99.90;;;;;;5025795;28;20297;-29
2023/11/15 00:04:24;;;;;;;3.40;2.50;;;12.80;99.90;;;;;;5007741;28;20773;-35
2023/11/15 00:07:11;;;;;;;5.63;2.23;;;12.80;99.90;;;;;;5020547;28;20789;-30
2023/11/15 00:09:37;;;;;;;4.03;2.33;;;12.70;99.90;;;;;;5019860;28;20429;-34
2023/11/15 00:12:03;;;;;;;4.10;2.05;;;12.70;99.90;;;;;;5020189;28;20642;-33
2023/11/15 00:14:29;;;;;;;2.27;2.13;;;12.70;99.90;;;;;;5001626;28;20222;-33
2023/11/15 00:16:57;;;;;;;3.80;1.90;;;12.70;99.90;;;;;;5019814;28;20857;-32
2023/11/15 00:19:23;;;;;;;2.75;1.90;;;12.70;99.90;;;;;;5020247;28;20431;-32
2023/11/15 00:21:49;;;;;;;2.28;1.92;;;12.70;99.90;;;;;;5002171;28;20217;-33
2023/11/15 00:24:38;;;;;;;3.33;2.00;;;12.80;99.90;;;;;;5032347;28;20257;-30
2023/11/15 00:27:08;;;;;;;3.30;1.90;;;12.80;99.90;;;;;;5020545;28;20518;-36
2023/11/15 00:29:36;;;;;;;3.97;1.90;;;12.80;99.90;;;;;;4986250;28;20429;-30
2023/11/15 00:32:04;;;;;;;3.00;2.05;;;12.80;99.90;;;;;;5004404;28;21130;-32
2023/11/15 00:34:30;;;;;;;6.53;2.17;;;12.70;99.90;;;;;;5006482;28;20754;-31
2023/11/15 00:36:57;;;;;;;6.00;2.40;;;12.80;99.90;;;;;;5014582;28;20472;-32
2023/11/15 00:39:23;;;;;;;4.30;2.03;;;12.70;99.90;;;;;;5017513;28;20456;-31
2023/11/15 00:41:52;;;;;;;4.73;2.37;;;12.70;99.90;;;;;;5026449;28;20433;-28
2023/11/15 00:44:18;;;;;;;8.03;3.30;;;12.70;99.90;;;;;;5009552;28;20452;-33
2023/11/15 00:46:44;;;;;;;4.80;3.13;;;12.70;99.90;;;;;;5026473;28;20916;-32
2023/11/15 00:49:11;;;;;;;6.77;3.03;;;12.60;99.90;;;;;;5010277;28;20421;-33
2023/11/15 00:51:39;;;;;;;6.73;3.30;;;12.60;99.90;;;;;;5021864;28;20446;-29
2023/11/15 00:54:06;;;;;;;5.17;3.50;;;12.60;99.90;;;;;;5025236;28;20783;-31
2023/11/15 00:56:33;;;;;;;8.10;3.90;;;12.60;99.90;;;;;;5007949;28;20204;-33
2023/11/15 00:58:59;;;;;;;6.00;3.80;;;12.60;99.90;;;;;;5007997;28;20428;-34
2023/11/15 01:01:27;;;;;;;8.57;4.20;;;12.60;99.90;;;;;;5020568;28;20476;-31
2023/11/15 01:03:55;;;;;;;10.47;4.27;;;12.60;99.90;;;;;;5024520;28;20451;-31
2023/11/15 01:06:25;;;;;;;5.90;4.30;;;12.60;99.90;;;;;;5016227;28;20506;-34
2023/11/15 01:08:53;;;;;;;6.93;4.10;;;12.60;99.90;;;;;;5011423;28;20456;-28
2023/11/15 01:11:20;;;;;;;11.00;4.73;;;12.60;99.90;;;;;;5018144;28;20974;-30
2023/11/15 01:13:48;;;;;;;6.60;4.60;;;12.60;99.90;;;;;;5007283;28;20524;-30
2023/11/15 01:16:17;;;;;;;10.10;4.50;;;12.60;99.90;;;;;;5027440;28;20478;-35
2023/11/15 01:18:43;;;;;;;8.00;4.53;;;12.60;99.90;;;;;;5025094;28;20502;-32
2023/11/15 01:21:11;;;;;;;9.47;4.60;;;12.60;99.90;;;;;;5014446;28;20449;-32
2023/11/15 01:23:37;;;;;;;7.10;4.90;;;12.60;99.90;;;;;;4993307;28;20528;-32
2023/11/15 01:26:06;;;;;;;7.33;4.30;;;12.60;99.90;;;;;;4999907;28;20818;-31
2023/11/15 01:28:32;;;;;;;8.00;4.60;;;12.60;99.90;;;;;;5009177;28;20484;-33
2023/11/15 01:31:01;;;;;;;10.03;5.00;;;12.60;99.90;;;;;;5032463;28;20428;-33
2023/11/15 01:33:27;;;;;;;11.13;4.73;;;12.60;99.90;;;;;;5025987;28;20439;-33
2023/11/15 01:35:53;;;;;;;12.73;5.65;;;12.60;99.90;;;;;;5010809;28;20476;-31
2023/11/15 01:38:19;;;;;;;8.47;4.77;;;12.60;99.90;;;;;;4988391;28;20244;-28
2023/11/15 01:41:10;;;;;;;13.07;5.20;;;12.70;99.90;;;;;;5011796;28;20459;-31
2023/11/15 01:43:36;;;;;;;6.60;4.57;;;12.70;99.90;;;;;;5003542;28;20420;-29
2023/11/15 01:46:21;;;;;;;6.93;4.40;;;12.70;99.90;;;;;;5023168;28;20509;-31
2023/11/15 01:49:06;;;;;;;7.77;4.63;;;12.70;99.90;;;;;;5015327;28;20205;-31
2023/11/15 01:51:32;;;;;;;7.00;4.70;;;12.70;99.90;;;;;;5004789;28;20460;-32
2023/11/15 01:53:58;;;;;;;7.37;5.47;;;12.70;99.90;;;;;;5013062;28;20433;-33
2023/11/15 01:56:43;;;;;;;10.00;4.80;;;12.70;99.90;;;;;;5026161;28;20454;-32
2023/11/15 01:59:10;;;;;;;7.43;5.00;;;12.70;99.90;;;;;;5007824;28;20918;-29
2023/11/15 02:01:38;;;;;;;14.83;5.70;;;12.60;99.90;;;;;;5010280;28;20443;-32
2023/11/15 02:04:04;;;;;;;10.00;5.25;;;12.60;99.90;;;;;;5023969;28;20427;-32
2023/11/15 02:06:35;;;;;;;7.37;5.40;;;12.60;99.90;;;;;;5002413;28;20190;-31
2023/11/15 02:09:02;;;;;;;7.80;4.80;;;12.70;99.90;;;;;;5008017;28;21216;-29
2023/11/15 02:11:30;;;;;;;8.67;5.30;;;12.70;99.90;;;;;;5022167;28;20447;-30
2023/11/15 02:13:56;;;;;;;8.33;5.50;;;12.70;99.90;;;;;;5011715;28;20443;-30
2023/11/15 02:16:25;;;;;;;7.17;5.03;;;12.60;99.90;;;;;;4975112;28;20533;-29
2023/11/15 02:18:51;;;;;;;8.73;4.87;;;12.60;99.90;;;;;;4995297;28;21297;-31
2023/11/15 02:21:22;;;;;;;11.40;4.87;;;12.60;99.90;;;;;;5026198;28;20518;-34
2023/11/15 02:23:51;;;;;;;9.00;5.33;;;12.60;99.90;;;;;;4987580;28;20544;-34
2023/11/15 02:26:19;;;;;;;5.53;4.27;;;12.60;99.90;;;;;;4987835;28;20522;-29
2023/11/15 02:28:46;;;;;;;24.70;6.00;;;12.60;99.90;;;;;;5008485;28;20425;-31
2023/11/15 02:31:12;;;;;;;9.30;5.90;;;12.70;99.90;;;;;;5003498;28;20532;-30
2023/11/15 02:33:38;;;;;;;10.83;6.10;;;12.70;99.90;;;;;;5005704;28;21019;-33
2023/11/15 02:36:04;;;;;;;8.87;5.47;;;12.60;99.90;;;;;;5011683;28;20479;-32
2023/11/15 02:38:49;;;;;;;8.70;5.23;;;12.60;99.90;;;;;;5021246;28;20979;-31
2023/11/15 02:41:16;;;;;;;8.40;6.03;;;12.60;99.90;;;;;;5022157;28;20448;-30
2023/11/15 02:44:01;;;;;;;9.53;5.53;;;12.60;99.90;;;;;;5028412;28;20479;-27
2023/11/15 02:46:46;;;;;;;5.90;4.93;;;12.60;99.90;;;;;;5025753;28;21074;-31
2023/11/15 02:49:12;;;;;;;8.85;5.13;;;12.60;99.90;;;;;;5005672;28;20444;-31
2023/11/15 02:51:39;;;;;;;8.87;5.53;;;12.60;99.90;;;;;;5024681;28;20211;-32
2023/11/15 02:54:05;;;;;;;9.10;5.80;;;12.70;99.90;;;;;;5004970;28;20487;-32
2023/11/15 02:56:55;;;;;;;9.10;5.60;;;12.70;99.90;;;;;;5023866;28;20462;-31
2023/11/15 02:59:20;;;;;;;11.02;5.22;;;12.60;99.90;;;;;;5002611;28;20841;-31
2023/11/15 03:01:47;;;;;;;7.07;4.90;;;12.70;99.90;;;;;;5022151;28;20201;-34
2023/11/15 03:04:16;;;;;;;13.30;5.57;;;12.70;99.90;;;;;;4997651;28;20559;-33
2023/11/15 03:07:01;;;;;;;8.53;5.17;;;12.70;99.90;;;;;;5027943;28;20453;-31
2023/11/15 03:09:27;;;;;;;7.47;5.00;;;12.70;99.90;;;;;;5000783;28;20987;-30
2023/11/15 03:11:53;;;;;;;6.67;5.03;;;12.60;99.90;;;;;;5025181;28;20450;-34
2023/11/15 03:14:19;;;;;;;8.27;5.30;;;12.70;99.90;;;;;;5007374;28;20179;-34
2023/11/15 03:16:47;;;;;;;8.70;5.20;;;12.60;99.90;;;;;;5008830;28;20415;-34
2023/11/15 03:19:13;;;;;;;10.60;5.47;;;12.60;99.90;;;;;;5008029;28;20435;-29
2023/11/15 03:21:58;;;;;;;14.97;5.57;;;12.60;99.90;;;;;;5016908;28;20457;-31
2023/11/15 03:24:24;;;;;;;10.90;5.17;;;12.60;99.90;;;;;;5021046;28;21241;-32
2023/11/15 03:26:51;;;;;;;8.70;5.57;;;12.60;99.90;;;;;;5013438;28;20454;-29
2023/11/15 03:29:36;;;;;;;12.15;6.20;;;12.60;99.90;;;;;;5005282;28;20454;-30
2023/11/15 03:32:23;;;;;;;8.13;5.20;;;12.60;99.90;;;;;;5019206;28;20219;-33
2023/11/15 03:34:49;;;;;;;11.30;5.23;;;12.70;99.90;;;;;;5015641;28;20673;-30
2023/11/15 03:37:15;;;;;;;7.60;5.97;;;12.70;99.90;;;;;;4969912;28;20447;-32
2023/11/15 03:39:44;;;;;;;12.50;6.57;;;12.70;99.90;;;;;;5004527;28;20845;-29
2023/11/15 03:42:12;;;;;;;8.00;5.37;;;12.70;99.90;;;;;;5001716;28;21103;-31
2023/11/15 03:44:38;;;;;;;8.37;6.90;;;12.70;99.90;;;;;;5012941;28;20432;-30
2023/11/15 03:47:22;;;;;;;8.48;5.50;;;12.60;99.90;;;;;;4996316;28;20522;-30
2023/11/15 03:49:51;;;;;;;12.10;5.70;;;12.70;99.90;;;;;;5020635;28;20444;-27
2023/11/15 03:52:17;;;;;;;10.67;5.80;;;12.70;99.90;;;;;;4969265;28;20464;-33
2023/11/15 03:54:43;;;;;;;7.97;5.43;;;12.70;99.90;;;;;;5003332;28;20545;-29
2023/11/15 03:57:11;;;;;;;12.53;5.20;;;12.70;99.90;;;;;;5031419;28;20192;-30
2023/11/15 03:59:37;;;;;;;9.10;5.13;;;12.70;99.90;;;;;;5008818;28;20521;-31
2023/11/15 04:02:06;;;;;;;16.17;5.97;;;12.70;99.90;;;;;;5028660;28;20208;-30
2023/11/15 04:04:33;;;;;;;14.40;6.43;;;12.70;99.90;;;;;;5007980;28;20456;-31
2023/11/15 04:07:00;;;;;;;14.35;5.70;;;12.70;99.90;;;;;;5020316;28;20451;-32
2023/11/15 04:09:26;;;;;;;13.30;5.10;;;12.70;99.90;;;;;;5002716;28;20189;-33
2023/11/15 04:11:54;;;;;;;10.50;5.23;;;12.80;99.90;;;;;;5037293;28;20751;-32
2023/11/15 04:14:21;;;;;;;12.03;5.50;;;12.80;99.90;;;;;;5009631;28;20427;-29
2023/11/15 04:16:52;;;;;;;10.90;5.03;;;12.80;99.90;;;;;;5026086;28;20520;-33
2023/11/15 04:19:38;;;;;;;10.53;5.47;;;12.70;99.90;;;;;;4996889;28;20430;-33
2023/11/15 04:22:05;;;;;;;11.60;5.88;;;12.70;99.90;;;;;;5019964;28;20476;-30
2023/11/15 04:24:34;;;;;;;11.35;5.57;;;12.70;99.90;;;;;;5002283;28;20680;-29
2023/11/15 04:27:04;;;;;;;15.30;5.47;;;12.70;99.90;;;;;;5009207;28;20513;-35
2023/11/15 04:29:49;;;;;;;12.30;6.07;;;12.80;99.90;;;;;;5034035;28;21178;-29
2023/11/15 04:32:15;;;;;;;9.03;5.53;;;12.80;99.90;;;;;;5029129;28;20211;-31
2023/11/15 04:34:59;;;;;;;9.87;5.53;;;12.80;99.90;;;;;;5015367;28;20643;-32
2023/11/15 04:37:25;;;;;;;8.70;4.73;;;12.80;99.90;;;;;;5012526;28;20436;-33
2023/11/15 04:39:51;;;;;;;5.90;4.70;;;12.70;99.90;;;;;;5019457;28;20590;-32
2023/11/15 04:42:20;;;;;;;7.70;5.00;;;12.70;99.90;;;;;;5014122;28;21029;-33
2023/11/15 04:44:50;;;;;;;10.03;5.80;;;12.70;99.90;;;;;;5008637;28;20816;-28
2023/11/15 04:47:35;;;;;;;10.45;5.45;;;12.60;99.90;;;;;;5016214;28;20505;-32
2023/11/15 04:50:20;;;;;;;9.67;4.73;;;12.70;99.90;;;;;;5019894;28;20209;-32
2023/11/15 04:52:48;;;;;;;9.35;5.30;;;12.70;99.90;;;;;;5020307;28;21436;-31
2023/11/15 04:55:14;;;;;;;6.30;4.60;;;12.70;99.90;;;;;;5001544;28;20218;-31
2023/11/15 04:57:43;;;;;;;7.53;4.80;;;12.70;99.90;;;;;;5019687;28;20457;-30
2023/11/15 05:00:11;;;;;;;9.47;4.63;;;12.70;99.90;;;;;;5019597;28;20465;-29
2023/11/15 05:02:37;;;;;;;7.30;4.67;;;12.70;99.90;;;;;;5001620;28;20500;-33
2023/11/15 05:05:05;;;;;;;8.18;5.35;;;12.70;99.90;;;;;;5033126;28;20426;-29
2023/11/15 05:07:36;;;;;;;13.48;4.95;;;12.70;99.90;;;;;;5006033;28;20269;-33
2023/11/15 05:10:04;;;;;;;5.63;4.53;;;12.70;99.90;;;;;;5007959;28;20185;-33
2023/11/15 05:12:33;;;;;;;8.30;4.57;;;12.80;99.90;;;;;;5021302;28;20451;-28
2023/11/15 05:15:06;;;;;;;8.50;4.43;;;12.80;99.90;;;;;;5033232;28;20233;-30
2023/11/15 05:17:32;;;;;;;10.23;5.00;;;12.80;99.90;;;;;;5005642;28;20486;-30
2023/11/15 05:20:03;;;;;;;8.20;4.80;;;12.80;99.90;;;;;;5016554;28;20432;-30
2023/11/15 05:22:31;;;;;;;11.60;4.87;;;12.80;99.90;;;;;;4995426;28;20994;-29
2023/11/15 05:24:57;;;;;;;7.80;5.20;;;12.70;99.90;;;;;;5027329;28;20424;-34
2023/11/15 05:27:23;;;;;;;8.53;4.23;;;12.70;99.90;;;;;;5008542;28;20440;-33
2023/11/15 05:29:52;;;;;;;12.43;5.13;;;12.70;99.90;;;;;;5009149;28;20981;-34
2023/11/15 05:32:21;;;;;;;8.93;4.30;;;12.60;99.90;;;;;;4990856;28;20457;-30
2023/11/15 05:34:47;;;;;;;8.57;4.27;;;12.60;99.90;;;;;;5006369;28;20468;-30
2023/11/15 05:37:14;;;;;;;12.17;4.00;;;12.60;99.90;;;;;;5027197;28;20429;-33
2023/11/15 05:40:00;;;;;;;14.63;4.73;;;12.60;99.90;;;;;;5007571;28;20423;-32
2023/11/15 05:42:26;;;;;;;8.30;4.30;;;12.60;99.90;;;;;;5023398;28;20527;-34
2023/11/15 05:45:15;;;;;;;10.40;5.10;;;12.60;99.90;;;;;;5022189;28;20965;-29
2023/11/15 05:47:41;;;;;;;11.30;4.53;;;12.60;99.90;;;;;;5031162;28;20483;-31
2023/11/15 05:50:25;;;;;;;6.03;4.30;;;12.60;99.90;;;;;;5038783;28;20442;-29
2023/11/15 05:52:52;;;;;;;9.17;4.13;;;12.60;99.90;;;;;;5006380;28;20365;-34
2023/11/15 05:55:39;;;;;;;8.27;4.43;;;12.60;99.90;;;;;;4992344;28;20549;-36
2023/11/15 05:58:05;;;;;;;7.20;4.07;;;12.60;99.90;;;;;;5023046;28;20516;-29
2023/11/15 06:00:34;;;;;;;12.90;3.60;;;12.60;99.90;;;;;;5003511;28;20452;-30
2023/11/15 06:03:00;;;;;;;10.40;4.70;;;12.60;99.90;;;;;;5000672;28;20485;-33
2023/11/15 06:05:26;;;;;;;10.43;4.00;;;12.60;99.90;;;;;;5011719;28;20587;-31
2023/11/15 06:07:52;;;;;;;11.10;4.40;;;12.60;99.90;;;;;;5029529;28;20460;-30
2023/11/15 06:10:39;;;;;;;5.70;3.70;;;12.60;99.90;;;;;;5022263;28;20432;-32
2023/11/15 06:13:06;;;;;;;6.87;3.60;;;12.70;99.90;;;;;;4988109;28;20488;-30
2023/11/15 06:15:35;;;;;;;9.50;4.47;;;12.70;99.90;;;;;;5021443;28;20472;-31
2023/11/15 06:18:01;;;;;;;6.50;3.70;;;12.70;99.90;;;;;;5012965;28;20432;-33
2023/11/15 06:20:46;;;;;;;7.23;3.90;;;12.70;99.90;;;;;;5022902;28;20421;-28
2023/11/15 06:23:13;;;;;;;12.03;4.07;;;12.60;99.90;;;;;;5021832;28;20453;-31
2023/11/15 06:25:39;;;;;;;5.90;4.10;;;12.60;99.90;;;;;;5003482;28;20255;-32
2023/11/15 06:28:05;;;;;;;11.23;4.40;;;12.60;99.90;;;;;;5020783;28;20888;-31
2023/11/15 06:30:34;;;;;;;7.70;4.33;;;12.60;99.90;;;;;;5029933;28;20445;-31
2023/11/15 06:33:00;;;;;;;6.75;3.55;;;12.60;99.90;;;;;;5007174;28;20533;-34
2023/11/15 06:35:26;;;;;;;8.13;3.87;;;12.60;99.90;;;;;;5003110;28;20500;-30
2023/11/15 06:37:54;;;;;;;9.80;3.97;;;12.60;99.90;;;;;;5021431;28;20456;-31
2023/11/15 06:40:22;;;;;;;13.57;4.40;;;12.60;99.90;;;;;;5020825;28;20448;-32
2023/11/15 06:42:51;;;;;;;7.23;3.40;;;12.60;99.90;;;;;;5029913;28;20442;-27
2023/11/15 06:45:17;;;;;;;8.23;4.20;;;12.60;99.90;;;;;;5021185;28;20444;-29
2023/11/15 06:47:43;;;;;;;8.23;3.60;;;12.60;99.90;;;;;;5014176;28;21025;-31
2023/11/15 06:50:10;;;;;;;10.30;4.23;;;12.60;99.90;;;;;;5036670;28;21020;-33
2023/11/15 06:52:40;;;;;;;7.00;4.30;;;12.60;99.90;;;;;;5006347;28;20464;-34
2023/11/15 06:55:10;;;;;;;9.77;3.90;;;12.60;99.90;;;;;;5004155;28;20501;-29
2023/11/15 06:57:43;;;;;;;10.57;3.83;;;12.60;99.90;;;;;;5029852;28;20774;-28
2023/11/15 07:00:11;;;;;;;7.40;4.00;;;12.60;99.90;;;;;;5019304;28;20446;-29
2023/11/15 07:02:38;;;;;;;9.00;3.60;;;12.50;99.90;;;;;;5019193;28;20833;-33
2023/11/15 07:05:07;;;;;;;11.20;3.90;;;12.50;99.90;;;;;;5034483;28;20429;-30
2023/11/15 07:07:33;;;;;;;7.90;4.93;;;12.50;99.90;;;;;;5016273;28;20476;-32
2023/11/15 07:09:59;;;;;;;15.63;4.53;;;12.50;99.90;;;;;;5057511;22;21187;-28
2023/11/15 07:12:29;;;;;;;9.10;4.23;;;12.50;99.90;;;;;;5004214;28;20460;-28
2023/11/15 07:14:56;;;;;;;9.90;3.70;;;12.50;99.90;;;;;;5031177;28;20464;-28
2023/11/15 07:17:24;;;;;;;6.23;4.00;;;12.50;99.90;;;;;;5008998;28;20438;-28
2023/11/15 07:19:52;;;;;;;12.40;3.80;;;12.50;99.90;;;;;;5024155;28;20432;-29
2023/11/15 07:22:21;;;;;;;9.73;4.88;;;12.50;99.90;;;;;;5023700;28;20463;-28
2023/11/15 07:24:47;;;;;;;9.70;4.10;;;12.50;99.90;;;;;;4992979;28;20282;-29
2023/11/15 07:27:13;;;;;;;8.70;4.05;;;12.60;99.90;;;;;;5022632;28;20798;-28
2023/11/15 07:29:44;;;;;;;11.27;4.00;;;12.60;99.90;;;;;;5010247;28;20189;-27
2023/11/15 07:32:11;;;;;;;9.87;4.10;;;12.60;99.90;;;;;;4993213;28;20941;-28
2023/11/15 07:34:40;;;;;;;12.10;4.60;;;12.60;99.90;;;;;;4992358;28;20470;-28
2023/11/15 07:37:08;;;;;;;12.10;4.70;;;12.60;99.90;;;;;;5005005;28;20452;-28
2023/11/15 07:39:35;;;;;;;7.47;3.80;;;12.60;99.90;;;;;;5017367;28;20415;-29
2023/11/15 07:42:01;;;;;;;8.00;4.50;;;12.60;99.90;;;;;;5025590;28;20204;-28
2023/11/15 07:44:30;;;;;;;9.80;4.17;;;12.60;99.90;;;;;;5027798;28;20424;-29
2023/11/15 07:46:58;;;;;;;7.53;3.73;;;12.60;99.90;;;;;;4998490;28;20431;-28
2023/11/15 07:49:26;;;;;;;10.03;3.77;;;12.60;99.90;;;;;;5036142;28;20455;-28
2023/11/15 07:51:53;;;;;;;8.50;4.50;;;12.60;99.90;;;;;;5027314;28;20438;-28
2023/11/15 07:54:22;;;;;;;9.00;4.07;;;12.60;99.90;;;;;;4996597;28;20449;-29
2023/11/15 07:56:50;;;;;;;12.40;4.93;;;12.60;99.90;;;;;;5022602;28;20459;-29
2023/11/15 07:59:16;;;;;;;9.50;4.10;;;12.60;99.90;;;;;;5003078;28;20425;-27
2023/11/15 08:01:42;;;;;;;8.73;4.33;;;12.60;99.90;;;;;;5025849;28;20448;-28
2023/11/15 08:04:09;;;;;;;11.00;4.90;;;12.50;99.90;;;;;;5001626;28;20438;-28
2023/11/15 08:06:36;;;;;;;7.13;4.60;;;12.50;99.90;;;;;;5028132;28;20835;-29
2023/11/15 08:09:32;;;;;;;7.13;4.00;;;12.60;99.90;;;;;;5022943;28;20292;-29
2023/11/15 08:11:59;;;;;;;9.63;3.77;;;12.60;99.90;;;;;;4992533;28;20476;-30
2023/11/15 08:14:25;;;;;;;9.13;4.07;;;12.60;99.90;;;;;;5001291;28;20467;-28
2023/11/15 08:16:51;;;;;;;13.63;4.17;;;12.60;99.90;;;;;;5019107;28;20436;-29
2023/11/15 08:19:21;;;;;;;9.20;4.60;;;12.60;99.90;;;;;;5021292;28;20518;-27
2023/11/15 08:21:47;;;;;;;8.68;4.25;;;12.60;99.90;;;;;;5021983;28;20463;-28
2023/11/15 08:24:20;;;;;;;11.30;4.90;;;12.60;99.90;;;;;;5019335;28;20253;-28
2023/11/15 08:26:52;;;;;;;14.27;4.53;;;12.60;99.90;;;;;;5030387;28;20427;-27
2023/11/15 08:29:19;;;;;;;6.27;4.73;;;12.60;99.90;;;;;;5020131;28;20484;-29
2023/11/15 08:31:46;;;;;;;11.27;4.50;;;12.60;99.90;;;;;;4998703;28;21021;-28
2023/11/15 08:34:13;;;;;;;15.80;4.97;;;12.60;99.90;;;;;;4970922;28;20634;-28
2023/11/15 08:36:40;;;;;;;9.90;4.63;;;12.60;99.90;;;;;;5000008;28;20471;-29
2023/11/15 08:39:12;;;;;;;6.97;3.80;;;12.50;99.90;;;;;;5134220;22;20510;-27
2023/11/15 08:41:41;;;;;;;9.63;4.50;;;12.50;99.90;;;;;;5072516;28;20443;-27
2023/11/15 08:44:08;;;;;;;10.13;4.43;;;12.50;99.90;;;;;;5095656;28;20435;-26
2023/11/15 08:46:34;;;;;;;10.83;4.70;;;12.50;99.90;;;;;;5095547;28;20459;-27
2023/11/15 08:49:01;;;;;;;9.50;4.80;;;12.50;99.90;;;;;;5064322;28;20439;-27
2023/11/15 08:51:50;;;;;;;5.97;3.50;;;12.50;99.90;;;;;;5092443;28;21218;-27
2023/11/15 08:54:16;;;;;;;9.70;5.97;;;12.50;99.90;;;;;;5094841;28;20414;-27
2023/11/15 08:56:42;;;;;;;7.13;4.00;;;12.50;99.90;;;;;;5096940;28;20296;-26
2023/11/15 08:59:13;;;;;;;8.93;4.05;;;12.60;99.90;;;;;;5101585;28;20528;-27
2023/11/15 09:01:59;;;;;;;12.53;4.10;;;12.60;99.90;;;;;;5091395;28;20259;-26
2023/11/15 09:04:25;;;;;;;9.37;4.40;;;12.60;99.90;;;;;;5046666;28;21154;-26
2023/11/15 09:06:52;;;;;;;5.47;3.97;;;12.60;99.90;;;;;;5063528;28;20436;-27
2023/11/15 09:09:21;;;;;;;8.93;4.43;;;12.60;99.90;;;;;;5094573;28;20426;-27
2023/11/15 09:11:47;;;;;;;5.17;3.37;;;12.60;99.90;;;;;;5048655;28;20454;-26
2023/11/15 09:14:16;;;;;;;8.30;3.80;;;12.60;99.90;;;;;;5062073;28;20501;-27
2023/11/15 09:16:47;;;;;;;7.30;3.53;;;12.60;99.90;;;;;;5065630;28;20259;-27
2023/11/15 09:19:16;;;;;;;12.20;4.57;;;12.60;99.90;;;;;;5064605;28;20432;-34
2023/11/15 09:22:03;;;;;;;12.40;5.27;;;12.70;99.90;;;;;;5085164;28;20454;-27
2023/11/15 09:24:30;;;;;;;6.10;3.73;;;12.60;99.90;;;;;;5095681;28;20466;-26
2023/11/15 09:27:00;;;;;;;9.70;4.20;;;12.60;99.90;;;;;;5081883;28;20454;-26
2023/11/15 09:29:28;;;;;;;5.00;3.73;;;12.60;99.90;;;;;;5088653;28;20779;-26
2023/11/15 09:31:55;;;;;;;10.73;4.03;;;12.60;99.90;;;;;;5093601;28;20440;-26
2023/11/15 09:34:25;;;;;;;8.10;3.93;;;12.60;99.90;;;;;;5070347;28;20996;-27
2023/11/15 09:36:53;;;;;;;9.40;4.28;;;12.60;99.90;;;;;;5084362;28;20995;-26
2023/11/15 09:39:20;;;;;;;6.23;3.87;;;12.60;99.90;;;;;;5081458;28;20198;-26
2023/11/15 09:41:53;;;;;;;9.93;4.70;;;12.60;99.90;;;;;;5066931;28;20838;-27
2023/11/15 09:44:25;;;;;;;11.13;4.10;;;12.70;99.90;;;;;;5064100;28;20242;-27
2023/11/15 09:46:56;;;;;;;9.90;3.57;;;12.70;99.90;;;;;;5095029;28;20884;-27
2023/11/15 09:49:27;;;;;;;11.57;4.40;;;12.70;99.90;;;;;;5093924;28;20466;-26
2023/11/15 09:51:54;;;;;;;7.27;4.20;;;12.70;99.90;;;;;;5089838;28;20446;-27
2023/11/15 09:54:40;;;;;;;9.27;3.63;;;12.60;99.90;;;;;;5069670;28;20438;-27
2023/11/15 09:57:09;;;;;;;6.43;3.67;;;12.70;99.90;;;;;;5089188;28;20481;-28
2023/11/15 09:59:36;;;;;;;12.63;4.00;;;12.70;99.90;;;;;;5088213;28;20420;-26
2023/11/15 10:02:03;;;;;;;6.63;4.03;;;12.70;99.90;;;;;;5095453;28;20436;-27
2023/11/15 10:04:34;;;;;;;9.60;4.73;;;12.70;99.90;;;;;;5083761;28;20488;-27
2023/11/15 10:07:01;;;;;;;10.53;4.50;;;12.70;99.90;;;;;;5065029;28;20452;-27
2023/11/15 10:09:42;;;;;;;8.13;4.38;;;12.70;99.90;;;;;;5092484;28;20827;-27
2023/11/15 10:12:09;;;;;;;9.00;4.60;;;12.70;99.90;;;;;;5091793;28;20270;-27
2023/11/15 10:14:53;;;;;;;13.63;4.60;;;12.70;99.90;;;;;;5098961;28;21015;-27
2023/11/15 10:17:22;;;;;;;6.97;3.50;;;12.80;99.90;;;;;;5063376;28;20237;-26
2023/11/15 10:19:55;;;;;;;6.20;4.13;;;12.80;99.90;;;;;;5062166;28;20442;-27
2023/11/15 10:22:20;;;;;;;7.37;4.23;;;12.80;99.90;;;;;;5051091;28;20457;-27
2023/11/15 10:25:05;;;;;;;8.90;4.07;;;12.70;99.90;;;;;;5094001;28;20486;-27
2023/11/15 10:27:37;;;;;;;9.60;3.37;;;12.70;99.90;;;;;;5098747;28;20486;-27
2023/11/15 10:30:16;;;;;;;10.23;4.77;;;12.70;99.90;;;;;;5077148;28;20439;-27
2023/11/15 10:32:44;;;;;;;11.30;4.17;;;12.70;99.90;;;;;;5089538;28;20476;-26
2023/11/15 10:35:27;;;;;;;10.73;4.20;;;12.70;99.90;;;;;;5098963;28;20568;-27
2023/11/15 10:37:53;;;;;;;11.77;4.17;;;12.70;99.90;;;;;;5098641;28;20869;-27
2023/11/15 10:40:25;;;;;;;7.27;4.30;;;12.70;99.90;;;;;;5083465;28;20482;-27
2023/11/15 10:42:53;;;;;;;8.77;3.60;;;12.70;99.90;;;;;;5061805;28;21108;-27
2023/11/15 10:45:22;;;;;;;8.17;3.87;;;12.70;99.90;;;;;;5064224;28;20448;-27
2023/11/15 10:47:57;;;;;;;9.87;3.30;;;12.70;99.90;;;;;;5064928;28;20433;-27
2023/11/15 10:50:26;;;;;;;6.90;3.30;;;12.70;99.90;;;;;;5095120;28;20493;-27
2023/11/15 10:52:54;;;;;;;12.27;4.23;;;12.70;99.90;;;;;;5098699;28;20542;-27
2023/11/15 10:55:29;;;;;;;12.40;4.70;;;12.70;99.90;;;;;;5065148;28;20483;-27
2023/11/15 10:58:02;;;;;;;8.40;3.30;;;12.70;99.90;;;;;;5089347;28;20446;-27
2023/11/15 11:00:30;;;;;;;6.13;3.30;;;12.70;99.90;;;;;;5063742;28;20504;-27
2023/11/15 11:02:57;;;;;;;6.73;4.07;;;12.70;99.90;;;;;;5067013;28;20544;-27
2023/11/15 11:05:41;;;;;;;6.97;3.75;;;12.70;99.90;;;;;;5098358;28;20408;-27
2023/11/15 11:08:26;;;;;;;5.93;3.83;;;12.70;99.90;;;;;;5091347;28;20507;-27
2023/11/15 11:11:11;;;;;;;7.80;3.80;;;12.80;99.90;;;;;;5096545;28;20934;-27
2023/11/15 11:13:40;;;;;;;9.27;4.20;;;12.80;99.90;;;;;;5084152;28;20441;-27
2023/11/15 11:16:28;;;;;;;7.63;3.77;;;12.80;99.90;;;;;;5046980;28;20540;-27
2023/11/15 11:19:11;;;;;;;7.73;3.80;;;12.90;99.90;;;;;;5069471;28;21049;-27
2023/11/15 11:22:06;;;;;;;13.03;4.83;;;12.80;99.90;;;;;;5095186;28;20445;-27
2023/11/15 11:25:06;;;;;;;7.63;3.67;;;12.80;99.90;;;;;;5096191;28;20479;-26
2023/11/15 11:27:33;;;;;;;11.00;3.67;;;12.80;99.90;;;;;;5089296;28;20419;-27
2023/11/15 11:30:01;;;;;;;5.93;3.67;;;12.80;99.90;;;;;;5071456;28;20441;-27
2023/11/15 11:32:34;;;;;;;8.63;3.70;;;12.80;99.90;;;;;;5079782;28;20447;-27
2023/11/15 11:35:06;;;;;;;5.87;4.43;;;12.80;99.90;;;;;;5037154;28;20644;-26
2023/11/15 11:37:53;;;;;;;9.60;3.93;;;12.80;99.90;;;;;;5060752;28;20577;-27
2023/11/15 11:40:23;;;;;;;7.43;3.75;;;12.80;99.90;;;;;;5056517;28;20416;-27
2023/11/15 11:42:53;;;;;;;8.80;4.60;;;12.80;99.90;;;;;;5058997;28;20210;-27
2023/11/15 11:45:23;;;;;;;8.33;4.00;;;12.90;99.90;;;;;;5091257;28;21023;-27
2023/11/15 11:47:49;;;;;;;7.73;3.40;;;12.90;99.90;;;;;;5054264;28;20447;-26
2023/11/15 11:50:23;;;;;;;6.30;4.00;;;12.90;99.90;;;;;;5091871;28;20456;-27
2023/11/15 11:52:57;;;;;;;11.00;4.27;;;12.90;99.90;;;;;;5054070;28;20530;-27
2023/11/15 11:55:24;;;;;;;8.77;4.17;;;12.90;99.90;;;;;;5057086;28;20476;-27
2023/11/15 11:57:50;;;;;;;10.90;3.40;;;12.90;99.90;;;;;;5067591;28;20440;-27
2023/11/15 12:00:22;;;;;;;7.90;4.13;;;12.90;99.90;;;;;;5055486;28;20430;-27
2023/11/15 12:02:54;;;;;;;8.53;5.20;;;12.90;99.90;;;;;;5096342;28;20452;-27
2023/11/15 12:05:25;;;;;;;5.47;3.33;;;12.90;99.90;;;;;;5096906;28;20431;-27
2023/11/15 12:07:56;;;;;;;5.72;3.70;;;12.90;99.90;;;;;;5089702;28;20794;-27
2023/11/15 12:10:25;;;;;;;4.67;4.00;;;13.00;99.90;;;;;;5059057;28;20939;-27
2023/11/15 12:12:55;;;;;;;9.70;4.03;;;13.00;99.90;;;;;;5043113;28;20446;-27
2023/11/15 12:15:24;;;;;;;9.30;4.07;;;13.00;99.90;;;;;;5063563;28;20829;-34
2023/11/15 12:17:52;;;;;;;6.43;3.93;;;13.00;99.90;;;;;;5081244;28;20424;-27
2023/11/15 12:20:41;;;;;;;6.10;3.63;;;13.00;99.90;;;;;;5045910;28;20476;-27
2023/11/15 12:23:17;;;;;;;6.27;4.53;;;13.00;99.90;;;;;;5086622;28;21164;-27
2023/11/15 12:25:53;;;;;;;6.80;3.40;;;13.00;99.90;;;;;;5082249;28;20540;-27
2023/11/15 12:28:23;;;;;;;7.00;3.90;;;13.00;99.90;;;;;;5094032;28;20422;-27
2023/11/15 12:30:51;;;;;;;7.60;3.77;;;13.00;99.90;;;;;;5080193;28;20415;-26
2023/11/15 12:33:21;;;;;;;6.80;3.43;;;13.00;99.90;;;;;;5042419;28;20460;-26
2023/11/15 12:35:49;;;;;;;7.33;3.73;;;13.00;99.90;;;;;;5059823;28;20609;-27
2023/11/15 12:38:16;;;;;;;14.43;4.50;;;12.90;99.90;;;;;;5094569;28;20436;-27
2023/11/15 12:40:45;;;;;;;6.83;3.80;;;13.00;99.90;;;;;;5094869;28;20493;-27
2023/11/15 12:43:30;;;;;;;5.30;3.43;;;13.00;99.90;;;;;;5064895;28;20456;-27
2023/11/15 12:45:59;;;;;;;5.43;3.63;;;13.00;99.90;;;;;;5058718;28;20963;-27
2023/11/15 12:48:25;;;;;;;9.50;3.77;;;13.00;99.90;;;;;;5067273;28;20521;-27
2023/11/15 12:51:02;;;;;;;6.03;3.30;;;13.00;99.90;;;;;;5061101;28;20436;-26
2023/11/15 12:53:30;;;;;;;10.40;3.80;;;13.00;99.90;;;;;;5096023;28;20221;-26
2023/11/15 12:55:57;;;;;;;12.10;4.00;;;13.10;99.90;;;;;;5090289;28;20463;-27
2023/11/15 12:58:29;;;;;;;8.30;4.00;;;13.10;99.90;;;;;;5060744;28;21240;-27
2023/11/15 13:01:00;;;;;;;5.40;3.50;;;13.10;99.90;;;;;;5050419;28;20568;-27